Saturday, February 28, 2015, 11:25 PM EST

KSHD, Staunton / Shenandoah

Location: Weyers Cave, VA, United States Lat: 38.267
Local Time: 11:25 PM EST ( 4:25 GMT) Lon: -78.9
Time Zone: US/Eastern Elev: 1200 ft

Show me the last for .
Show Decoded

2015-02-28 23:15 METAR KSHD 010415Z AUTO 00000KT 10SM OVC070 M08/M12 A3066 RMK AO2 T10791118 =
2015-02-28 22:55 METAR KSHD 010355Z AUTO 00000KT 10SM OVC070 M08/M12 A3066 RMK AO2 T10761116 =
2015-02-28 22:35 METAR KSHD 010335Z AUTO 00000KT 10SM OVC070 M08/M12 A3067 RMK AO2 T10821120 =
2015-02-28 22:15 METAR KSHD 010315Z AUTO 00000KT 10SM SCT070 M07/M12 A3067 RMK AO2 T10691120 =
2015-02-28 21:55 METAR KSHD 010255Z AUTO 00000KT 10SM CLR M08/M12 A3068 RMK AO2 T10791124 =
2015-02-28 21:35 METAR KSHD 010235Z AUTO 00000KT 10SM CLR M08/M12 A3068 RMK AO2 T10821117 =
2015-02-28 21:15 METAR KSHD 010215Z AUTO 00000KT 10SM CLR M07/M12 A3068 RMK AO2 T10711116 =
2015-02-28 20:55 METAR KSHD 010155Z AUTO 00000KT 10SM CLR M07/M12 A3068 RMK AO2 T10671117 =
2015-02-28 20:35 METAR KSHD 010135Z AUTO 00000KT 10SM CLR M05/M12 A3069 RMK AO2 T10551117 =
2015-02-28 20:15 METAR KSHD 010115Z AUTO 00000KT 10SM CLR M06/M12 A3068 RMK AO2 T10591118 =
2015-02-28 19:55 METAR KSHD 010055Z AUTO 00000KT 10SM CLR M04/M12 A3067 RMK AO2 T10401122 =
2015-02-28 19:35 METAR KSHD 010035Z AUTO 00000KT 10SM CLR M03/M12 A3067 RMK AO2 T10341123 =
2015-02-28 19:15 METAR KSHD 010015Z AUTO 00000KT 10SM CLR M02/M13 A3067 RMK AO2 T10251126 =
2015-02-28 18:55 METAR KSHD 282355Z AUTO 15003KT 10SM CLR M02/M12 A3067 RMK AO2 T10231125 11005
                 21040 =
2015-02-28 18:35 METAR KSHD 282335Z AUTO 15003KT 10SM CLR M02/M12 A3067 RMK AO2 T10221120 =
2015-02-28 18:15 METAR KSHD 282315Z AUTO 19004KT 10SM CLR M02/M12 A3066 RMK AO2 T10171121 =
2015-02-28 17:55 METAR KSHD 282255Z AUTO 17004KT 10SM CLR M01/M12 A3066 RMK AO2 T10111123 =
2015-02-28 17:35 METAR KSHD 282235Z AUTO 17003KT 10SM CLR M01/M12 A3066 RMK AO2 T10091122 =
2015-02-28 17:15 METAR KSHD 282215Z AUTO 18003KT 10SM CLR M01/M12 A3067 RMK AO2 T10071124 =
2015-02-28 16:55 METAR KSHD 282155Z AUTO 18005KT 10SM CLR M01/M12 A3067 RMK AO2 T10061121 =
2015-02-28 16:35 METAR KSHD 282135Z AUTO 20005KT 10SM CLR M01/M12 A3067 RMK AO2 T10071124 =
2015-02-28 16:15 METAR KSHD 282115Z AUTO 20006KT 10SM CLR M01/M12 A3067 RMK AO2 T10061124 =
2015-02-28 15:55 METAR KSHD 282055Z AUTO 19006KT 10SM CLR M01/M13 A3067 RMK AO2 T10101128 =
2015-02-28 15:35 METAR KSHD 282035Z AUTO 20005KT 10SM CLR M01/M12 A3067 RMK AO2 T10081122 =
2015-02-28 15:15 METAR KSHD 282015Z AUTO 16006KT 10SM CLR M01/M13 A3067 RMK AO2 T10121129 =
2015-02-28 14:55 METAR KSHD 281955Z AUTO 17006KT 10SM CLR M01/M12 A3068 RMK AO2 T10151121 =
2015-02-28 14:35 METAR KSHD 281935Z AUTO 19006KT 10SM CLR M02/M12 A3068 RMK AO2 T10191124 =
2015-02-28 14:15 METAR KSHD 281915Z AUTO 19004KT 10SM CLR M02/M13 A3069 RMK AO2 T10221131 =
2015-02-28 13:55 METAR KSHD 281855Z AUTO 17006KT 10SM CLR M03/M13 A3070 RMK AO2 T10261132 =
2015-02-28 13:35 METAR KSHD 281835Z AUTO 00000KT 10SM CLR M03/M13 A3071 RMK AO2 T10301135 =
2015-02-28 13:15 METAR KSHD 281815Z AUTO 00000KT 10SM CLR M03/M14 A3073 RMK AO2 T10351138 =
2015-02-28 12:35 METAR KSHD 281735Z AUTO 00000KT 10SM CLR M04/M15 A3075 RMK AO2 T10381146 =
2015-02-28 12:15 METAR KSHD 281715Z AUTO 00000KT 10SM CLR M05/M15 A3076 RMK AO2 T10471148 =
2015-02-28 11:55 METAR KSHD 281655Z AUTO 00000KT 10SM SCT110 M05/M16 A3076 RMK AO2 T10531156 =
2015-02-28 11:35 METAR KSHD 281635Z AUTO 00000KT 10SM SCT065 M05/M16 A3077 RMK AO2 T10531156 =
2015-02-28 11:15 METAR KSHD 281615Z AUTO 00000KT 10SM SCT065 M06/M16 A3078 RMK AO2 T10561160 =
2015-02-28 10:35 METAR KSHD 281535Z AUTO 00000KT 10SM CLR M07/M17 A3079 RMK AO2 T10661167 =
2015-02-28 10:15 METAR KSHD 281515Z AUTO 00000KT 10SM SCT070 M07/M16 A3078 RMK AO2 T10751163 =
2015-02-28 09:55 METAR KSHD 281455Z AUTO 00000KT 10SM SCT080 M08/M16 A3079 RMK AO2 T10781162 =
2015-02-28 09:35 METAR KSHD 281435Z AUTO 00000KT 10SM SCT080 M09/M16 A3079 RMK AO2 T10861163 =
2015-02-28 09:15 METAR KSHD 281415Z AUTO 00000KT 10SM CLR M09/M17 A3079 RMK AO2 T10861167 =
2015-02-28 08:55 METAR KSHD 281355Z AUTO 00000KT 10SM CLR M10/M16 A3079 RMK AO2 T10961165 =
2015-02-28 08:35 METAR KSHD 281335Z AUTO 00000KT 10SM CLR M10/M17 A3078 RMK AO2 T10971166 =
2015-02-28 08:15 METAR KSHD 281315Z AUTO 00000KT 10SM CLR M11/M16 A3077 RMK AO2 T11071162 =
2015-02-28 07:55 METAR KSHD 281255Z AUTO 00000KT 10SM CLR M13/M17 A3075 RMK AO2 T11301172 =
2015-02-28 07:35 METAR KSHD 281235Z AUTO 00000KT 10SM CLR M13/M17 A3074 RMK AO2 T11321171 =
2015-02-28 07:15 METAR KSHD 281215Z AUTO 00000KT 10SM CLR M13/M17 A3073 RMK AO2 T11311171 =
2015-02-28 06:55 METAR KSHD 281155Z AUTO 00000KT 10SM CLR M12/M17 A3072 RMK AO2 T11241166 11080
                 21135 =
2015-02-28 06:35 METAR KSHD 281135Z AUTO 00000KT 10SM CLR M13/M17 A3072 RMK AO2 T11291175 =
2015-02-28 06:15 METAR KSHD 281115Z AUTO 00000KT 10SM CLR M11/M16 A3071 RMK AO2 T11111165 =
2015-02-28 05:55 METAR KSHD 281055Z AUTO 00000KT 10SM CLR M11/M17 A3070 RMK AO2 T11091169 =
2015-02-28 05:35 METAR KSHD 281035Z AUTO 00000KT 10SM CLR M11/M16 A3070 RMK AO2 T11101164 =
2015-02-28 05:15 METAR KSHD 281015Z AUTO 00000KT 10SM CLR M12/M17 A3069 RMK AO2 T11161166 =
2015-02-28 04:55 METAR KSHD 280955Z AUTO 00000KT 10SM CLR M12/M17 A3069 RMK AO2 T11171170 =
2015-02-28 04:35 METAR KSHD 280935Z AUTO 35003KT 10SM CLR M11/M16 A3067 RMK AO2 T11141164 =
2015-02-28 04:15 METAR KSHD 280915Z AUTO 00000KT 10SM CLR M12/M17 A3067 RMK AO2 T11191170 =
2015-02-28 03:35 METAR KSHD 280835Z AUTO 00000KT 10SM CLR M12/M17 A3065 RMK AO2 T11251166 =
2015-02-28 03:15 METAR KSHD 280815Z AUTO 00000KT 10SM CLR M11/M17 A3064 RMK AO2 T11141166 =
2015-02-28 02:55 METAR KSHD 280755Z AUTO 00000KT 10SM CLR M10/M16 A3064 RMK AO2 T10961160 =
2015-02-28 02:35 METAR KSHD 280735Z AUTO 00000KT 10SM CLR M12/M17 A3064 RMK AO2 T11231173 =
2015-02-28 02:15 METAR KSHD 280715Z AUTO 00000KT 10SM CLR M11/M16 A3064 RMK AO2 T11081164 =
2015-02-28 01:55 METAR KSHD 280655Z AUTO 00000KT 10SM CLR M11/M16 A3064 RMK AO2 T11061163 =
2015-02-28 01:35 METAR KSHD 280635Z AUTO 00000KT 10SM CLR M10/M16 A3063 RMK AO2 T11031163 =
2015-02-28 01:15 METAR KSHD 280615Z AUTO 00000KT 10SM CLR M08/M16 A3062 RMK AO2 T10801160 =
2015-02-28 00:55 METAR KSHD 280555Z AUTO 02003KT 10SM CLR M09/M16 A3061 RMK AO2 T10881160 11025
                 21088 400111088 =
2015-02-28 00:35 METAR KSHD 280535Z AUTO 01005KT 10SM CLR M07/M16 A3060 RMK AO2 T10711160 =
2015-02-28 00:15 METAR KSHD 280515Z AUTO 02007KT 10SM CLR M07/M16 A3060 RMK AO2 T10721158 =
2015-02-27 23:55 METAR KSHD 280455Z AUTO 02007KT 10SM CLR M07/M16 A3060 RMK AO2 T10701157 =
2015-02-27 23:35 METAR KSHD 280435Z AUTO 02005KT 10SM CLR M07/M15 A3060 RMK AO2 T10731155 =

Support USWX by starting your Amazon purchase here.